createdAt,value
2015-10-24T00:00:12.939Z,1014.5
2015-10-24T00:01:12.880Z,1014.5
2015-10-24T00:02:12.632Z,1014.5
2015-10-24T00:03:12.572Z,1014.5
2015-10-24T00:04:12.544Z,1014.5
2015-10-24T00:05:12.452Z,1014.4
2015-10-24T00:06:12.408Z,1014.5
2015-10-24T00:07:12.349Z,1014.5
2015-10-24T00:08:12.305Z,1014.5
2015-10-24T00:09:12.088Z,1014.6
2015-10-24T00:10:12.186Z,1014.5
2015-10-24T00:11:12.329Z,1014.5
2015-10-24T00:12:12.065Z,1014.5
2015-10-24T00:13:12.209Z,1014.5
2015-10-24T00:14:11.962Z,1014.5
2015-10-24T00:15:11.933Z,1014.5
2015-10-24T00:16:11.855Z,1014.5
2015-10-24T00:17:11.796Z,1014.5
2015-10-24T00:18:11.735Z,1014.5
2015-10-24T00:19:11.676Z,1014.5
2015-10-24T00:20:11.616Z,1014.5
2015-10-24T00:21:11.807Z,1014.5
2015-10-24T00:22:11.527Z,1014.5
2015-10-24T00:23:11.468Z,1014.5
2015-10-24T00:24:11.408Z,1014.5
2015-10-24T00:25:11.348Z,1014.4
2015-10-24T00:26:11.304Z,1014.5
2015-10-24T00:27:11.260Z,1014.4
2015-10-24T00:28:11.184Z,1014.5
2015-10-24T00:29:11.140Z,1014.3
2015-10-24T00:30:11.503Z,1014.5
2015-10-24T00:31:10.880Z,1014.4
2015-10-24T00:32:10.808Z,1014.4
2015-10-24T00:33:10.921Z,1014.3
2015-10-24T00:34:10.846Z,1014.2
2015-10-24T00:35:10.801Z,1014.3
2015-10-24T00:36:10.726Z,1014.2
2015-10-24T00:37:10.697Z,1014.3
2015-10-24T00:38:10.810Z,1014.1
2015-10-24T00:39:10.562Z,1014.2
2015-10-24T00:40:10.533Z,1014.3
2015-10-24T00:41:10.457Z,1014.2
2015-10-24T00:42:10.413Z,1014.2
2015-10-24T00:43:10.338Z,1014.2
2015-10-24T00:44:10.279Z,1014.2
2015-10-24T00:45:10.234Z,1014.2
2015-10-24T00:46:10.190Z,1014.2
2015-10-24T00:47:10.317Z,1014.1
2015-10-24T00:48:10.071Z,1014.3
2015-10-24T00:49:10.011Z,1014.1
2015-10-24T00:50:09.951Z,1014
2015-10-24T00:51:09.892Z,1014
2015-10-24T00:52:09.831Z,1014.1
2015-10-24T00:53:09.787Z,1014.2
2015-10-24T00:54:09.728Z,1014
2015-10-24T00:55:09.511Z,1014
2015-10-24T00:56:09.608Z,1014.1
2015-10-24T00:57:09.565Z,1014
2015-10-24T00:58:09.504Z,1014.1
2015-10-24T00:59:09.445Z,1014
2015-10-24T01:00:09.385Z,1014
2015-10-24T01:01:09.339Z,1013.9
2015-10-24T01:02:09.280Z,1013.9
2015-10-24T01:03:09.236Z,1014
2015-10-24T01:04:09.161Z,1013.9
2015-10-24T01:05:09.117Z,1013.9
2015-10-24T01:06:09.494Z,1014
2015-10-24T01:07:08.998Z,1013.9
2015-10-24T01:08:08.939Z,1013.8
2015-10-24T01:09:08.894Z,1013.9
2015-10-24T01:10:08.834Z,1013.8
2015-10-24T01:11:08.774Z,1013.9
2015-10-24T01:12:08.744Z,1013.8
2015-10-24T01:13:08.670Z,1013.8
2015-10-24T01:14:08.610Z,1013.8
2015-10-24T01:15:08.566Z,1013.9
2015-10-24T01:16:08.538Z,1013.9
2015-10-24T01:17:08.447Z,1013.8
2015-10-24T01:18:08.403Z,1013.8
2015-10-24T01:19:07.561Z,1013.9
2015-10-24T01:20:08.283Z,1013.7
2015-10-24T01:21:08.207Z,1013.8
2015-10-24T01:22:07.414Z,1013.8
2015-10-24T01:23:08.088Z,1013.7
2015-10-24T01:24:08.044Z,1013.7
2015-10-24T01:25:07.985Z,1013.8
2015-10-24T01:26:07.940Z,1013.8
2015-10-24T01:27:07.865Z,1013.8
2015-10-24T01:28:08.055Z,1013.9
2015-10-24T01:29:07.761Z,1013.8
2015-10-24T01:30:07.732Z,1013.8
2015-10-24T01:31:07.641Z,1013.8
2015-10-24T01:32:07.800Z,1013.8
2015-10-24T01:33:07.537Z,1013.8
2015-10-24T01:34:07.493Z,1013.7
2015-10-24T01:35:07.418Z,1013.7
2015-10-24T01:36:07.404Z,1013.7
2015-10-24T01:37:07.310Z,1013.7
2015-10-24T01:38:07.251Z,1013.7
2015-10-24T01:39:07.191Z,1013.8
2015-10-24T01:40:07.148Z,1013.8
2015-10-24T01:41:07.072Z,1013.7
2015-10-24T01:42:07.028Z,1013.7
2015-10-24T01:43:06.968Z,1013.7
2015-10-24T01:44:06.924Z,1013.7
2015-10-24T01:45:06.848Z,1013.5
2015-10-24T01:46:06.804Z,1013.7
2015-10-24T01:47:06.745Z,1013.5
2015-10-24T01:48:06.701Z,1013.4
2015-10-24T01:49:06.625Z,1013.5
2015-10-24T01:50:06.581Z,1013.5
2015-10-24T01:51:06.521Z,1013.5
2015-10-24T01:52:06.476Z,1013.4
2015-10-24T01:53:06.401Z,1013.4
2015-10-24T01:54:05.592Z,1013.4
2015-10-24T01:55:06.313Z,1013.5
2015-10-24T01:56:06.238Z,1013.4
2015-10-24T01:57:06.213Z,1013.4
2015-10-24T01:58:06.122Z,1013.3
2015-10-24T01:59:06.077Z,1013.4
2015-10-24T02:00:06.019Z,1013.4
2015-10-24T02:01:05.958Z,1013.2
2015-10-24T02:02:05.915Z,1013.4
2015-10-24T02:03:06.058Z,1013.4
2015-10-24T02:04:05.029Z,1013.4
2015-10-24T02:05:05.735Z,1013.3
2015-10-24T02:06:05.706Z,1013.3
2015-10-24T02:07:05.631Z,1013.4
2015-10-24T02:08:05.571Z,1013.3
2015-10-24T02:09:05.527Z,1013.2
2015-10-24T02:10:05.452Z,1013.1
2015-10-24T02:11:05.392Z,1013.2
2015-10-24T02:12:05.348Z,1013.2
2015-10-24T02:13:05.287Z,1013.1
2015-10-24T02:14:05.228Z,1013.1
2015-10-24T02:15:05.168Z,1013.1
2015-10-24T02:16:05.124Z,1013.1
2015-10-24T02:17:05.065Z,1013.2
2015-10-24T02:18:05.005Z,1013.2
2015-10-24T02:19:04.945Z,1013.2
2015-10-24T02:20:04.901Z,1013.1
2015-10-24T02:21:04.841Z,1013.1
2015-10-24T02:22:04.798Z,1013.1
2015-10-24T02:23:04.722Z,1013.1
2015-10-24T02:24:04.661Z,1013.1
2015-10-24T02:25:04.617Z,1013.2
2015-10-24T02:26:04.573Z,1013.2
2015-10-24T02:27:04.514Z,1013.2
2015-10-24T02:28:04.439Z,1013.1
2015-10-24T02:29:04.379Z,1013.1
2015-10-24T02:30:04.335Z,1013
2015-10-24T02:31:04.275Z,1013.1
2015-10-24T02:32:04.215Z,1013.1
2015-10-24T02:33:04.170Z,1013
2015-10-24T02:34:04.111Z,1013
2015-10-24T02:35:04.051Z,1013.1
2015-10-24T02:36:03.992Z,1012.9
2015-10-24T02:37:03.963Z,1013.1
2015-10-24T02:38:04.106Z,1012.9
2015-10-24T02:39:03.812Z,1013
2015-10-24T02:40:03.768Z,1013.1
2015-10-24T02:41:03.958Z,1013.1
2015-10-24T02:42:03.663Z,1013
2015-10-24T02:43:03.604Z,1013
2015-10-24T02:44:03.541Z,1013.1
2015-10-24T02:45:03.482Z,1013
2015-10-24T02:46:03.422Z,1013.1
2015-10-24T02:47:03.377Z,1013.1
2015-10-24T02:48:03.349Z,1013.1
2015-10-24T02:49:03.258Z,1013.1
2015-10-24T02:50:03.198Z,1013.1
2015-10-24T02:51:03.154Z,1013
2015-10-24T02:52:03.079Z,1013.2
2015-10-24T02:53:03.019Z,1013.1
2015-10-24T02:54:02.975Z,1013
2015-10-24T02:55:02.932Z,1013.1
2015-10-24T02:56:02.855Z,1013
2015-10-24T02:57:02.812Z,1013
2015-10-24T02:58:02.757Z,1013
2015-10-24T02:59:02.698Z,1013
2015-10-24T03:00:02.637Z,1013
2015-10-24T03:01:02.578Z,1013
2015-10-24T03:02:02.518Z,1013
2015-10-24T03:03:02.473Z,1013
2015-10-24T03:04:02.414Z,1013
2015-10-24T03:05:02.353Z,1012.9
2015-10-24T03:06:02.295Z,1012.8
2015-10-24T03:07:02.250Z,1012.8
2015-10-24T03:08:01.456Z,1012.8
2015-10-24T03:09:02.317Z,1012.9
2015-10-24T03:10:02.070Z,1012.9
2015-10-24T03:11:02.011Z,1012.9
2015-10-24T03:12:01.967Z,1012.9
2015-10-24T03:13:01.892Z,1012.9
2015-10-24T03:14:01.847Z,1012.9
2015-10-24T03:15:01.787Z,1012.9
2015-10-24T03:16:01.758Z,1012.7
2015-10-24T03:17:00.839Z,1012.9
2015-10-24T03:18:01.624Z,1012.9
2015-10-24T03:19:01.563Z,1012.9
2015-10-24T03:20:01.536Z,1012.7
2015-10-24T03:21:01.444Z,1012.8
2015-10-24T03:22:01.400Z,1012.9
2015-10-24T03:23:01.324Z,1012.9
2015-10-24T03:24:01.281Z,1012.7
2015-10-24T03:25:01.269Z,1012.9
2015-10-24T03:26:01.161Z,1012.9
2015-10-24T03:27:01.117Z,1012.8
2015-10-24T03:28:01.291Z,1012.6
2015-10-24T03:29:01.013Z,1012.8
2015-10-24T03:30:00.953Z,1012.8
2015-10-24T03:31:00.894Z,1012.7
2015-10-24T03:32:00.818Z,1012.8
2015-10-24T03:33:00.790Z,1012.7
2015-10-24T03:34:00.699Z,1012.7
2015-10-24T03:35:00.670Z,1012.7
2015-10-24T03:36:00.610Z,1012.8
2015-10-24T03:37:00.551Z,1012.8
2015-10-24T03:38:00.490Z,1012.9
2015-10-24T03:39:00.446Z,1012.7
2015-10-24T03:40:00.371Z,1012.7
2015-10-24T03:41:00.562Z,1012.6
2015-10-24T03:42:00.251Z,1012.6
2015-10-24T03:43:00.410Z,1012.8
2015-10-24T03:44:00.148Z,1012.6
2015-10-24T03:45:00.087Z,1012.6
2015-10-24T03:46:00.028Z,1012.7
2015-10-24T03:46:59.984Z,1012.8
2015-10-24T03:47:59.937Z,1012.7
2015-10-24T03:48:59.877Z,1012.8
2015-10-24T03:50:00.004Z,1012.7
2015-10-24T03:50:59.757Z,1012.8
2015-10-24T03:51:59.698Z,1012.7
2015-10-24T03:52:59.638Z,1012.8
2015-10-24T03:53:59.578Z,1012.7
2015-10-24T03:54:59.534Z,1012.7
2015-10-24T03:55:59.459Z,1012.6
2015-10-24T03:56:59.414Z,1012.6
2015-10-24T03:57:59.355Z,1012.6
2015-10-24T03:58:59.311Z,1012.7
2015-10-24T03:59:59.236Z,1012.7
2015-10-24T04:00:59.191Z,1012.7
2015-10-24T04:01:59.131Z,1012.8
2015-10-24T04:02:59.087Z,1012.7
2015-10-24T04:03:59.011Z,1012.7
2015-10-24T04:04:58.967Z,1012.5
2015-10-24T04:05:58.908Z,1012.5
2015-10-24T04:06:58.848Z,1012.5
2015-10-24T04:07:58.803Z,1012.4
2015-10-24T04:08:58.744Z,1012.5
2015-10-24T04:09:58.684Z,1012.5
2015-10-24T04:10:58.641Z,1012.5
2015-10-24T04:11:58.580Z,1012.6
2015-10-24T04:12:58.521Z,1012.6
2015-10-24T04:13:58.445Z,1012.6
2015-10-24T04:14:58.385Z,1012.5
2015-10-24T04:15:58.342Z,1012.5
2015-10-24T04:16:58.282Z,1012.4
2015-10-24T04:17:58.285Z,1012.5
2015-10-24T04:18:58.178Z,1012.5
2015-10-24T04:19:58.119Z,1012.5
2015-10-24T04:20:58.058Z,1012.5
2015-10-24T04:21:57.999Z,1012.5
2015-10-24T04:22:57.938Z,1012.5
2015-10-24T04:23:57.894Z,1012.6
2015-10-24T04:24:57.819Z,1012.6
2015-10-24T04:25:58.010Z,1012.5
2015-10-24T04:26:57.730Z,1012.6
2015-10-24T04:27:57.655Z,1012.5
2015-10-24T04:28:57.596Z,1012.5
2015-10-24T04:29:57.739Z,1012.6
2015-10-24T04:30:57.492Z,1012.5
2015-10-24T04:31:57.416Z,1012.5
2015-10-24T04:32:57.607Z,1012.7
2015-10-24T04:33:57.329Z,1012.5
2015-10-24T04:34:57.299Z,1012.7
2015-10-24T04:35:57.427Z,1012.5
2015-10-24T04:36:57.399Z,1012.6
2015-10-24T04:37:57.089Z,1012.6
2015-10-24T04:38:57.045Z,1012.6
2015-10-24T04:39:56.971Z,1012.6
2015-10-24T04:40:56.910Z,1012.6
2015-10-24T04:41:57.084Z,1012.7
2015-10-24T04:42:56.821Z,1012.8
2015-10-24T04:43:56.746Z,1012.7
2015-10-24T04:44:56.686Z,1012.7
2015-10-24T04:45:56.658Z,1012.6
2015-10-24T04:46:56.629Z,1012.6
2015-10-24T04:47:56.709Z,1012.6
2015-10-24T04:48:56.462Z,1012.5
2015-10-24T04:49:56.418Z,1012.6
2015-10-24T04:50:56.546Z,1012.6
2015-10-24T04:51:56.298Z,1012.7
2015-10-24T04:52:56.443Z,1012.6
2015-10-24T04:53:56.209Z,1012.7
2015-10-24T04:54:56.117Z,1012.6
2015-10-24T04:55:56.275Z,1012.5
2015-10-24T04:56:55.903Z,1012.6
2015-10-24T04:57:55.959Z,1012.6
2015-10-24T04:58:56.102Z,1012.5
2015-10-24T04:59:55.855Z,1012.5
2015-10-24T05:00:55.811Z,1012.5
2015-10-24T05:01:55.735Z,1012.5
2015-10-24T05:02:55.676Z,1012.5
2015-10-24T05:03:55.616Z,1012.5
2015-10-24T05:04:55.572Z,1012.3
2015-10-24T05:05:55.496Z,1012.5
2015-10-24T05:06:55.453Z,1012.4
2015-10-24T05:07:55.409Z,1012.3
2015-10-24T05:08:55.349Z,1012.3
2015-10-24T05:09:55.273Z,1012.3
2015-10-24T05:10:55.213Z,1012.3
2015-10-24T05:11:55.184Z,1012.3
2015-10-24T05:12:55.094Z,1012.3
2015-10-24T05:13:55.034Z,1012.2
2015-10-24T05:14:54.990Z,1012.4
2015-10-24T05:15:54.774Z,1012.3
2015-10-24T05:16:55.105Z,1012.5
2015-10-24T05:17:54.811Z,1012.3
2015-10-24T05:18:54.767Z,1012.3
2015-10-24T05:19:54.706Z,1012.3
2015-10-24T05:20:53.912Z,1012.3
2015-10-24T05:21:54.587Z,1012.4
2015-10-24T05:22:54.527Z,1012.4
2015-10-24T05:23:54.687Z,1012.3
2015-10-24T05:24:54.423Z,1012.3
2015-10-24T05:25:54.364Z,1012.2
2015-10-24T05:26:54.320Z,1012.2
2015-10-24T05:27:54.245Z,1012.2
2015-10-24T05:28:54.200Z,1012.3
2015-10-24T05:29:54.141Z,1012.3
2015-10-24T05:30:54.080Z,1012.4
2015-10-24T05:31:54.036Z,1012.3
2015-10-24T05:32:53.977Z,1012.3
2015-10-24T05:33:54.136Z,1012.3
2015-10-24T05:34:53.872Z,1012.3
2015-10-24T05:35:53.813Z,1012.3
2015-10-24T05:36:53.738Z,1012.2
2015-10-24T05:37:53.678Z,1012.3
2015-10-24T05:38:53.633Z,1012.3
2015-10-24T05:39:53.558Z,1012.3
2015-10-24T05:40:53.498Z,1012.3
2015-10-24T05:41:53.454Z,1012.3
2015-10-24T05:42:53.254Z,1012.3
2015-10-24T05:43:53.335Z,1012.3
2015-10-24T05:44:53.274Z,1012.2
2015-10-24T05:45:53.230Z,1012.2
2015-10-24T05:46:53.171Z,1012
2015-10-24T05:47:53.111Z,1012.1
2015-10-24T05:48:53.052Z,1012.1
2015-10-24T05:49:52.991Z,1012.1
2015-10-24T05:50:52.932Z,1012.1
2015-10-24T05:51:52.888Z,1012
2015-10-24T05:52:52.813Z,1012.1
2015-10-24T05:53:52.785Z,1012.1
2015-10-24T05:54:52.724Z,1012.1
2015-10-24T05:55:52.649Z,1012.1
2015-10-24T05:56:52.449Z,1012.1
2015-10-24T05:57:52.545Z,1012.1
2015-10-24T05:58:52.485Z,1012.1
2015-10-24T05:59:52.423Z,1012
2015-10-24T06:00:52.378Z,1012.1
2015-10-24T06:01:52.303Z,1012
2015-10-24T06:02:52.259Z,1011.9
2015-10-24T06:03:52.214Z,1012
2015-10-24T06:04:52.154Z,1012
2015-10-24T06:05:52.079Z,1012
2015-10-24T06:06:52.035Z,1012
2015-10-24T06:07:51.975Z,1012
2015-10-24T06:08:51.915Z,1012
2015-10-24T06:09:51.856Z,1012
2015-10-24T06:10:51.812Z,1011.9
2015-10-24T06:11:51.737Z,1012.1
2015-10-24T06:12:51.692Z,1012
2015-10-24T06:13:51.648Z,1012
2015-10-24T06:14:51.775Z,1011.9
2015-10-24T06:15:51.513Z,1012
2015-10-24T06:16:51.453Z,1012
2015-10-24T06:17:51.425Z,1011.9
2015-10-24T06:18:51.568Z,1012
2015-10-24T06:19:51.305Z,1011.9
2015-10-24T06:20:51.230Z,1011.9
2015-10-24T06:21:51.170Z,1012
2015-10-24T06:22:51.111Z,1012
2015-10-24T06:23:51.050Z,1012
2015-10-24T06:24:51.006Z,1012.2
2015-10-24T06:25:50.926Z,1012
2015-10-24T06:26:51.121Z,1012
2015-10-24T06:27:50.800Z,1011.9
2015-10-24T06:28:50.948Z,1011.8
2015-10-24T06:29:50.673Z,1011.8
2015-10-24T06:30:50.606Z,1011.8
2015-10-24T06:31:50.745Z,1011.8
2015-10-24T06:32:50.479Z,1011.8
2015-10-24T06:33:50.414Z,1011.8
2015-10-24T06:34:50.367Z,1011.9
2015-10-24T06:35:50.382Z,1011.8
2015-10-24T06:36:50.258Z,1011.8
2015-10-24T06:37:50.041Z,1011.9
2015-10-24T06:38:50.152Z,1011.7
2015-10-24T06:39:49.934Z,1011.7
2015-10-24T06:40:50.014Z,1011.7
2015-10-24T06:41:49.955Z,1011.7
2015-10-24T06:42:49.909Z,1011.8
2015-10-24T06:43:49.881Z,1011.7
2015-10-24T06:44:49.790Z,1011.7
2015-10-24T06:45:49.931Z,1011.7
2015-10-24T06:46:49.684Z,1011.6
2015-10-24T06:47:49.624Z,1011.8
2015-10-24T06:48:49.564Z,1011.7
2015-10-24T06:49:49.520Z,1011.6
2015-10-24T06:50:49.460Z,1011.6
2015-10-24T06:51:49.400Z,1011.6
2015-10-24T06:52:49.340Z,1011.7
2015-10-24T06:53:49.484Z,1011.8
2015-10-24T06:54:49.220Z,1011.6
2015-10-24T06:55:49.412Z,1011.6
2015-10-24T06:56:49.132Z,1011.7
2015-10-24T06:57:49.054Z,1011.6
2015-10-24T06:58:49.010Z,1011.7
2015-10-24T06:59:48.966Z,1011.6
2015-10-24T07:00:48.890Z,1011.6
2015-10-24T07:01:48.831Z,1011.6
2015-10-24T07:02:48.787Z,1011.8
2015-10-24T07:03:48.976Z,1011.5
2015-10-24T07:04:48.901Z,1011.6
2015-10-24T07:05:48.623Z,1011.6
2015-10-24T07:06:48.564Z,1011.7
2015-10-24T07:07:48.504Z,1011.5
2015-10-24T07:08:48.459Z,1011.5
2015-10-24T07:09:48.399Z,1011.6
2015-10-24T07:10:48.339Z,1011.5
2015-10-24T07:11:48.295Z,1011.4
2015-10-24T07:12:48.219Z,1011.5
2015-10-24T07:13:48.191Z,1011.5
2015-10-24T07:14:48.131Z,1011.5
2015-10-24T07:15:48.072Z,1011.5
2015-10-24T07:16:48.012Z,1011.5
2015-10-24T07:17:47.969Z,1011.4
2015-10-24T07:18:48.111Z,1011.6
2015-10-24T07:19:47.864Z,1011.5
2015-10-24T07:20:47.805Z,1011.5
2015-10-24T07:21:47.947Z,1011.5
2015-10-24T07:22:47.967Z,1011.4
2015-10-24T07:23:47.656Z,1011.6
2015-10-24T07:24:47.597Z,1011.5
2015-10-24T07:25:47.536Z,1011.4
2015-10-24T07:26:47.477Z,1011.4
2015-10-24T07:27:47.417Z,1011.4
2015-10-24T07:28:47.357Z,1011.4
2015-10-24T07:29:47.313Z,1011.5
2015-10-24T07:30:47.254Z,1011.5
2015-10-24T07:31:47.210Z,1011.5
2015-10-24T07:32:47.352Z,1011.5
2015-10-24T07:33:47.090Z,1011.5
2015-10-24T07:34:47.029Z,1011.4
2015-10-24T07:35:46.971Z,1011.6
2015-10-24T07:36:46.941Z,1011.5
2015-10-24T07:37:46.882Z,1011.4
2015-10-24T07:38:47.056Z,1011.5
2015-10-24T07:39:46.779Z,1011.4
2015-10-24T07:40:46.718Z,1011.5
2015-10-24T07:41:46.659Z,1011.5
2015-10-24T07:42:46.630Z,1011.5
2015-10-24T07:43:46.540Z,1011.5
2015-10-24T07:44:46.510Z,1011.5
2015-10-24T07:45:46.435Z,1011.5
2015-10-24T07:46:46.391Z,1011.5
2015-10-24T07:47:45.597Z,1011.4
2015-10-24T07:48:46.287Z,1011.5
2015-10-24T07:49:46.226Z,1011.4
2015-10-24T07:50:46.183Z,1011.4
2015-10-24T07:51:46.123Z,1011.4
2015-10-24T07:52:46.079Z,1011.3
2015-10-24T07:53:46.003Z,1011.4
2015-10-24T07:54:45.944Z,1011.4
2015-10-24T07:55:45.900Z,1011.3
2015-10-24T07:56:45.856Z,1011.2
2015-10-24T07:57:46.021Z,1011.3
2015-10-24T07:58:45.726Z,1011.2
2015-10-24T07:59:45.713Z,1011.2
2015-10-24T08:00:45.623Z,1011.3
2015-10-24T08:01:45.563Z,1011.3
2015-10-24T08:02:45.518Z,1011.3
2015-10-24T08:03:45.334Z,1011.3
2015-10-24T08:04:45.399Z,1011.3
2015-10-24T08:05:45.355Z,1011.3
2015-10-24T08:06:45.152Z,1011.3
2015-10-24T08:07:45.467Z,1011.4
2015-10-24T08:08:45.189Z,1011.3
2015-10-24T08:09:45.128Z,1011.4
2015-10-24T08:10:45.287Z,1011.3
2015-10-24T08:11:45.024Z,1011.4
2015-10-24T08:12:45.199Z,1011.3
2015-10-24T08:13:44.748Z,1011.2
2015-10-24T08:14:44.861Z,1011.3
2015-10-24T08:15:44.801Z,1011.3
2015-10-24T08:16:44.742Z,1011.3
2015-10-24T08:17:44.697Z,1011.3
2015-10-24T08:18:44.637Z,1011.4
2015-10-24T08:19:44.811Z,1011.3
2015-10-24T08:20:44.533Z,1011.4
2015-10-24T08:21:44.489Z,1011.3
2015-10-24T08:22:44.429Z,1011.4
2015-10-24T08:23:44.369Z,1011.5
2015-10-24T08:24:44.326Z,1011.4
2015-10-24T08:25:44.266Z,1011.4
2015-10-24T08:26:44.222Z,1011.3
2015-10-24T08:27:44.162Z,1011.4
2015-10-24T08:28:44.118Z,1011.4
2015-10-24T08:29:44.042Z,1011.4
2015-10-24T08:30:43.998Z,1011.3
2015-10-24T08:31:43.938Z,1011.4
2015-10-24T08:32:43.894Z,1011.3
2015-10-24T08:33:43.819Z,1011.4
2015-10-24T08:34:43.775Z,1011.3
2015-10-24T08:35:43.730Z,1011.3
2015-10-24T08:36:43.655Z,1011.3
2015-10-24T08:37:43.595Z,1011.3
2015-10-24T08:38:43.552Z,1011.3
2015-10-24T08:39:43.508Z,1011.2
2015-10-24T08:40:43.447Z,1011.3
2015-10-24T08:41:43.388Z,1011.2
2015-10-24T08:42:43.344Z,1011.2
2015-10-24T08:43:43.284Z,1011.1
2015-10-24T08:44:43.224Z,1011.1
2015-10-24T08:45:42.398Z,1011.2
2015-10-24T08:46:43.105Z,1011.2
2015-10-24T08:47:43.264Z,1011.1
2015-10-24T08:48:43.001Z,1011
2015-10-24T08:49:42.941Z,1011
2015-10-24T08:50:42.881Z,1010.9
2015-10-24T08:51:42.852Z,1010.9
2015-10-24T08:52:42.027Z,1011
2015-10-24T08:53:42.967Z,1010.9
2015-10-24T08:54:42.657Z,1010.9
2015-10-24T08:55:42.629Z,1010.9
2015-10-24T08:56:42.570Z,1011
2015-10-24T08:57:42.525Z,1011
2015-10-24T08:58:42.465Z,1010.8
2015-10-24T08:59:42.406Z,1010.8
2015-10-24T09:00:42.346Z,1010.8
2015-10-24T09:01:42.302Z,1010.8
2015-10-24T09:02:42.242Z,1010.8
2015-10-24T09:03:42.182Z,1010.9
2015-10-24T09:04:42.123Z,1010.8
2015-10-24T09:05:42.078Z,1010.9
2015-10-24T09:06:42.050Z,1010.7
2015-10-24T09:07:41.975Z,1010.9
2015-10-24T09:08:41.915Z,1010.7
2015-10-24T09:09:41.855Z,1010.8
2015-10-24T09:10:41.811Z,1010.8
2015-10-24T09:11:41.751Z,1010.8
2015-10-24T09:12:41.707Z,1010.8
2015-10-24T09:13:41.645Z,1010.7
2015-10-24T09:14:41.802Z,1010.8
2015-10-24T09:15:41.525Z,1010.9
2015-10-24T09:16:41.324Z,1010.9
2015-10-24T09:17:41.436Z,1010.7
2015-10-24T09:18:41.594Z,1010.7
2015-10-24T09:19:41.316Z,1010.8
2015-10-24T09:20:41.272Z,1010.8
2015-10-24T09:21:41.197Z,1010.8
2015-10-24T09:22:41.153Z,1010.7
2015-10-24T09:23:41.094Z,1010.8
2015-10-24T09:24:41.033Z,1010.7
2015-10-24T09:25:41.224Z,1010.8
2015-10-24T09:26:40.930Z,1010.8
2015-10-24T09:27:40.886Z,1010.8
2015-10-24T09:28:40.825Z,1010.7
2015-10-24T09:29:40.765Z,1010.7
2015-10-24T09:30:40.722Z,1010.6
2015-10-24T09:31:39.913Z,1010.6
2015-10-24T09:32:40.617Z,1010.6
2015-10-24T09:33:40.543Z,1010.5
2015-10-24T09:34:40.498Z,1010.6
2015-10-24T09:35:40.454Z,1010.5
2015-10-24T09:36:40.379Z,1010.6
2015-10-24T09:37:40.569Z,1010.5
2015-10-24T09:38:40.275Z,1010.5
2015-10-24T09:39:40.215Z,1010.4
2015-10-24T09:40:40.374Z,1010.4
2015-10-24T09:41:40.111Z,1010.3
2015-10-24T09:42:40.068Z,1010.4
2015-10-24T09:43:40.023Z,1010.5
2015-10-24T09:44:39.948Z,1010.5
2015-10-24T09:45:39.904Z,1010.3
2015-10-24T09:46:39.843Z,1010.3
2015-10-24T09:47:39.815Z,1010.2
2015-10-24T09:48:39.943Z,1010.3
2015-10-24T09:49:39.679Z,1010.3
2015-10-24T09:50:39.636Z,1010.4
2015-10-24T09:51:39.779Z,1010.3
2015-10-24T09:52:39.735Z,1010.2
2015-10-24T09:53:39.487Z,1010.2
2015-10-24T09:54:39.412Z,1010.2
2015-10-24T09:55:39.353Z,1010.2
2015-10-24T09:56:39.308Z,1010.2
2015-10-24T09:57:39.264Z,1010.3
2015-10-24T09:58:39.189Z,1010.2
2015-10-24T09:59:39.144Z,1010.2
2015-10-24T10:00:39.085Z,1010.1
2015-10-24T10:01:39.276Z,1010.2
2015-10-24T10:02:38.231Z,1010.3
2015-10-24T10:03:38.921Z,1010.3
2015-10-24T10:04:38.861Z,1010
2015-10-24T10:05:38.817Z,1010.2
2015-10-24T10:06:38.757Z,1010.2
2015-10-24T10:07:38.728Z,1010.2
2015-10-24T10:08:38.669Z,1010.2
2015-10-24T10:09:38.608Z,1010.3
2015-10-24T10:10:38.549Z,1010.2
2015-10-24T10:11:38.505Z,1010.2
2015-10-24T10:12:38.430Z,1010.3
2015-10-24T10:13:38.385Z,1010.2
2015-10-24T10:14:38.325Z,1010.1
2015-10-24T10:15:38.266Z,1010.1
2015-10-24T10:16:38.221Z,1010.2
2015-10-24T10:17:38.208Z,1010.2
2015-10-24T10:18:38.336Z,1010.2
2015-10-24T10:19:38.058Z,1010.1
2015-10-24T10:20:37.998Z,1010.1
2015-10-24T10:21:37.969Z,1010.1
2015-10-24T10:22:37.894Z,1010.1
2015-10-24T10:23:37.709Z,1010
2015-10-24T10:24:37.791Z,1010.1
2015-10-24T10:25:37.746Z,1010.1
2015-10-24T10:26:37.702Z,1010
2015-10-24T10:27:37.642Z,1010
2015-10-24T10:28:37.598Z,1010
2015-10-24T10:29:37.538Z,1010
2015-10-24T10:30:37.463Z,1009.9
2015-10-24T10:31:37.403Z,1010
2015-10-24T10:32:37.359Z,1009.9
2015-10-24T10:33:37.315Z,1009.9
2015-10-24T10:34:37.254Z,1009.9
2015-10-24T10:35:37.195Z,1009.7
2015-10-24T10:36:37.150Z,1009.9
2015-10-24T10:37:37.294Z,1009.8
2015-10-24T10:38:37.047Z,1009.8
2015-10-24T10:39:36.987Z,1009.7
2015-10-24T10:40:36.943Z,1009.8
2015-10-24T10:41:36.867Z,1009.7
2015-10-24T10:42:36.838Z,1009.7
2015-10-24T10:43:36.997Z,1009.6
2015-10-24T10:44:36.735Z,1009.6
2015-10-24T10:45:36.659Z,1009.5
2015-10-24T10:46:36.600Z,1009.6
2015-10-24T10:47:36.555Z,1009.7
2015-10-24T10:48:36.511Z,1009.7
2015-10-24T10:49:36.452Z,1009.7
2015-10-24T10:50:36.407Z,1009.6
2015-10-24T10:51:36.347Z,1009.6
2015-10-24T10:52:36.490Z,1009.4
2015-10-24T10:53:36.259Z,1009.6
2015-10-24T10:54:36.402Z,1009.6
2015-10-24T10:55:36.124Z,1009.6
2015-10-24T10:56:36.283Z,1009.6
2015-10-24T10:57:36.018Z,1009.5
2015-10-24T10:58:35.958Z,1009.5
2015-10-24T10:59:35.913Z,1009.5
2015-10-24T11:00:35.712Z,1009.5
2015-10-24T11:01:35.809Z,1009.5
2015-10-24T11:02:35.765Z,1009.5
2015-10-24T11:03:35.940Z,1009.5
2015-10-24T11:04:35.646Z,1009.6
2015-10-24T11:05:35.602Z,1009.5
2015-10-24T11:06:35.542Z,1009.6
2015-10-24T11:07:35.482Z,1009.5
2015-10-24T11:08:35.438Z,1009.6
2015-10-24T11:09:35.393Z,1009.5
2015-10-24T11:10:35.178Z,1009.5
2015-10-24T11:11:35.476Z,1009.4
2015-10-24T11:12:35.214Z,1009.4
2015-10-24T11:13:35.169Z,1009.6
2015-10-24T11:14:35.109Z,1009.4
2015-10-24T11:15:35.066Z,1009.4
2015-10-24T11:16:35.006Z,1009.2
2015-10-24T11:17:34.946Z,1009.3
2015-10-24T11:18:34.136Z,1009.3
2015-10-24T11:19:35.092Z,1009.3
2015-10-24T11:20:34.797Z,1009.3
2015-10-24T11:21:34.754Z,1009.4
2015-10-24T11:22:34.678Z,1009.2
2015-10-24T11:23:34.650Z,1009.3
2015-10-24T11:24:34.590Z,1009.3
2015-10-24T11:25:34.530Z,1009.3
2015-10-24T11:26:34.471Z,1009.3
2015-10-24T11:27:34.427Z,1009.3
2015-10-24T11:28:34.382Z,1009.2
2015-10-24T11:29:34.321Z,1009.3
2015-10-24T11:30:34.277Z,1009.1
2015-10-24T11:31:34.218Z,1009.2
2015-10-24T11:32:34.158Z,1009.2
2015-10-24T11:33:34.129Z,1009.1
2015-10-24T11:34:34.054Z,1009.2
2015-10-24T11:35:34.010Z,1009.2
2015-10-24T11:36:33.965Z,1009.3
2015-10-24T11:37:33.907Z,1009.1
2015-10-24T11:38:33.846Z,1009.1
2015-10-24T11:39:33.037Z,1009.2
2015-10-24T11:40:33.742Z,1009.2
2015-10-24T11:41:33.698Z,1009.3
2015-10-24T11:42:33.654Z,1009.1
2015-10-24T11:43:33.595Z,1009.2
2015-10-24T11:44:33.534Z,1009.1
2015-10-24T11:45:33.475Z,1009.2
2015-10-24T11:46:33.431Z,1009.3
2015-10-24T11:47:33.589Z,1009.2
2015-10-24T11:48:33.326Z,1009.2
2015-10-24T11:49:33.267Z,1009.1
2015-10-24T11:50:33.222Z,1009
2015-10-24T11:51:33.163Z,1009
2015-10-24T11:52:33.119Z,1009
2015-10-24T11:53:33.262Z,1009.1
2015-10-24T11:54:33.014Z,1009
2015-10-24T11:55:32.955Z,1009.1
2015-10-24T11:56:32.911Z,1009.1
2015-10-24T11:57:32.851Z,1009.1
2015-10-24T11:58:32.807Z,1009
2015-10-24T11:59:32.747Z,1009
2015-10-24T12:00:32.688Z,1009
2015-10-24T12:01:32.627Z,1008.9
2015-10-24T12:02:32.583Z,1008.9
2015-10-24T12:03:32.758Z,1008.9
2015-10-24T12:04:32.480Z,1008.9
2015-10-24T12:05:32.435Z,1009
2015-10-24T12:06:32.375Z,1009
2015-10-24T12:07:32.315Z,1008.9
2015-10-24T12:08:32.271Z,1008.9
2015-10-24T12:09:32.226Z,1008.9
2015-10-24T12:10:32.151Z,1008.9
2015-10-24T12:11:32.123Z,1008.9
2015-10-24T12:12:32.063Z,1009
2015-10-24T12:13:32.004Z,1008.8
2015-10-24T12:14:31.959Z,1009
2015-10-24T12:15:31.899Z,1008.8
2015-10-24T12:16:31.840Z,1008.8
2015-10-24T12:17:31.796Z,1008.7
2015-10-24T12:18:31.751Z,1008.6
2015-10-24T12:19:31.707Z,1008.6
2015-10-24T12:20:31.632Z,1008.6
2015-10-24T12:21:31.572Z,1008.6
2015-10-24T12:22:31.528Z,1008.5
2015-10-24T12:23:31.467Z,1008.6
2015-10-24T12:24:31.409Z,1008.5
2015-10-24T12:25:31.380Z,1008.4
2015-10-24T12:26:31.320Z,1008.4
2015-10-24T12:27:31.261Z,1008.5
2015-10-24T12:28:31.200Z,1008.3
2015-10-24T12:29:31.156Z,1008.4
2015-10-24T12:30:31.112Z,1008.4
2015-10-24T12:31:30.505Z,1008.4